Terminal Aerodrome Forecast
Issued by NWS

Home | Current Version | Previous Version | Graphics & Text | Print | Product List | Glossary On
Versions: 1 2 3 4 5 6 7 8 9 10 11 12 13 14 15 16 17 18 19 20 21 22 23 24 25 26 27 28 29 30 31 32 33 34 35 36 37
000
FTUS43 KGRB 311100
TAFRHI
TAF
KRHI 311137Z 3112/0112 24004KT P6SM SCT015 OVC025
      TEMPO 3112/3115 BKN015
     FM311500 33006KT P6SM BKN018 OVC060
     FM312300 03005KT P6SM -SN BKN025=

USA.gov is the U.S. government's official web portal to all federal, state and local government web resources and services.